Aérodrome :
LOGIN :

S'inscrire | Disclaimer

   EN    FR    IT 

 










Légende :    VFR   VFR Marginal   IFR   IFR Intensif   IFR Très Intensif
Visi : 
Plafond : 
>= 8 km
>= 3000ft
5 à 8 km
1000 à 3000 ft
1500m à 5 km
500 à 1000 ft
800 à 1500m
200 à 500 ft
< 800m
< 200 ft
Symboles :   Orages  Brouillard  Fortes neiges  Fortes précipitations  Vent > 20 kt
SIGMETs :   Divers  Orages  Givrage  Turbulence  Onde Orograph.  Cendres Volcan.






- Altitude de l'aérodrome : 1161 ft
- Code IATA : RJL


LELO - Logroño-Agoncillo

DERNIER METAR :
  • 190430Z AUTO 27009KT 9999 ////// 04/03 Q1017

METARs EXPIRÉS :
  • 190400Z AUTO 28007KT 9999 ////// 04/03 Q1017
  • 190330Z AUTO 29006KT 270V330 9999 ////// 05/03 Q1018
  • 190300Z AUTO 24008KT 9999 ////// 06/04 Q1018
  • 190230Z AUTO 27006KT 9999 FEW040 OVC049 05/04 Q1018
  • 190200Z AUTO 28006KT 260V320 9999 BKN041 BKN048 06/04 Q1018

TAF TAF LELO
Valide du 19 à 03h jusqu'au 19 à 12h UTC


190200Z 1903/1912 29010KT 9999 BKN035



MET'MAP, la Météo Aéronautique d'un coup d'oeil ! - Copyright ORBIFLY Décembre 2007 - Disclaimer

ORBIFLY MET'MAP TEAM :

Programmation & Développement : Alexandra Zaïnal
Conception & Développement : Baudouin d'Aumeries
Co-Programmation & Développement : Marc-Olivier Méhu
Soutien technique & logistique : Manuel Goepfert

Contact : metmap@orbifly.com




SOURCES & CREDITS :

   NOAA